Estación Meteorológica Peña el Pijo (Robertgarden) [ 06/22/17 18:34:11 CEST ]

Fecha Hora Presion(HPa) Temp (°C) Humedad % Rocio (°C) Viento ( m/s) Direccion Lluvia 1Hora(mm) Lluvia 24H(mm) LLuvia Total(mm)
2017-Jun-10 01:01:49 1011.900 15.5 69 9.9         1427.09
2017-Jun-10 02:01:42 1011.900 14.3 73 9.5         1427.09
2017-Jun-10 03:02:22 1011.600 13.6 76 9.4         1427.09
2017-Jun-10 04:03:34 1011.400 13.1 77 9.1         1427.09
2017-Jun-10 05:01:42 1011.100 12.4 77 8.5         1427.09
2017-Jun-10 06:02:07 1011.200 11.6 78 7.9         1427.09
2017-Jun-10 07:01:59 1011.500 11.5 80 8.2         1427.09
2017-Jun-10 08:01:46 1011.900 12.9 81 9.7         1427.09
2017-Jun-10 09:01:43 1011.900 17.9 71 12.9         1427.09
2017-Jun-10 10:01:55 1011.800 25.6 52 15.0         1427.09
2017-Jun-10 11:01:37 1011.800 27.9 39 12.7         1427.09
2017-Jun-10 12:01:38 1011.800 31.3 35 13.9         1427.09
2017-Jun-10 13:01:36 1011.900 32.5 34 14.5 0.7 SSE     1427.09
2017-Jun-10 14:01:48 1011.500 32.3 34 14.3         1427.09
2017-Jun-10 15:01:46 1011.300 32.4 28 11.4         1427.09
2017-Jun-10 16:01:48 1011.200 33.3 28 12.2         1427.09
2017-Jun-10 17:01:54 1011.100 32.0 28 11.1         1427.09
2017-Jun-10 18:01:55 1011.100 30.8 31 11.7         1427.09
2017-Jun-10 19:01:38 1011.200 28.7 36 12.1         1427.09
2017-Jun-10 20:01:53 1011.100 26.9 42 12.9 3.2 S     1427.09
2017-Jun-10 21:01:45 1011.500 24.9 47 12.8         1427.09
2017-Jun-10 22:01:56 1011.800 22.8 52 12.4         1427.09
2017-Jun-10 23:01:41 1012.500 20.8 57 12.0         1427.09

Temperatura Máxima:33°    Temperatura Mínima:11°
Presión Máxima:1012.500 Hpa    Presión Mínima:1011.100 Hpa


Volver